sensor_id;sensor_type;location;lat;lon;timestamp;pressure;altitude;pressure_sealevel;temperature;humidity
60437;BME280;46289;51.992;4.498;2023-04-01T00:00:22;99306.91;;;8.49;98.74
60437;BME280;46289;51.992;4.498;2023-04-01T00:02:28;99312.72;;;8.54;98.63
60437;BME280;46289;51.992;4.498;2023-04-01T00:04:33;99307.28;;;8.57;98.65
60437;BME280;46289;51.992;4.498;2023-04-01T00:06:38;99312.97;;;8.50;98.57
60437;BME280;46289;51.992;4.498;2023-04-01T00:08:43;99314.75;;;8.49;98.84
60437;BME280;46289;51.992;4.498;2023-04-01T00:10:51;99318.97;;;8.52;99.05
60437;BME280;46289;51.992;4.498;2023-04-01T00:12:56;99316.53;;;8.49;98.98
60437;BME280;46289;51.992;4.498;2023-04-01T00:15:02;99314.09;;;8.46;99.06
60437;BME280;46289;51.992;4.498;2023-04-01T00:17:09;99314.75;;;8.49;98.91
60437;BME280;46289;51.992;4.498;2023-04-01T00:19:13;99320.81;;;8.50;99.15
60437;BME280;46289;51.992;4.498;2023-04-01T00:21:19;99318.13;;;8.51;98.60
60437;BME280;46289;51.992;4.498;2023-04-01T00:23:25;99321.00;;;8.47;98.97
60437;BME280;46289;51.992;4.498;2023-04-01T00:25:30;99321.84;;;8.47;99.00
60437;BME280;46289;51.992;4.498;2023-04-01T00:27:38;99326.41;;;8.44;98.77
60437;BME280;46289;51.992;4.498;2023-04-01T00:29:43;99325.41;;;8.46;98.83
60437;BME280;46289;51.992;4.498;2023-04-01T00:31:49;99331.81;;;8.41;98.78
60437;BME280;46289;51.992;4.498;2023-04-01T00:33:54;99330.56;;;8.48;98.94
60437;BME280;46289;51.992;4.498;2023-04-01T00:36:06;99328.09;;;8.45;98.95
60437;BME280;46289;51.992;4.498;2023-04-01T00:38:14;99327.06;;;8.31;99.14
60437;BME280;46289;51.992;4.498;2023-04-01T00:40:25;99326.88;;;8.34;99.15
60437;BME280;46289;51.992;4.498;2023-04-01T00:42:30;99337.28;;;8.36;98.92
60437;BME280;46289;51.992;4.498;2023-04-01T00:44:39;99337.19;;;8.38;98.90
60437;BME280;46289;51.992;4.498;2023-04-01T00:46:48;99340.59;;;8.40;98.94
60437;BME280;46289;51.992;4.498;2023-04-01T00:48:56;99340.06;;;8.33;98.76
60437;BME280;46289;51.992;4.498;2023-04-01T00:51:04;99342.50;;;8.36;99.10
60437;BME280;46289;51.992;4.498;2023-04-01T00:53:10;99352.91;;;8.38;98.67
60437;BME280;46289;51.992;4.498;2023-04-01T00:55:16;99347.16;;;8.31;99.28
60437;BME280;46289;51.992;4.498;2023-04-01T00:57:25;99347.75;;;8.36;99.13
60437;BME280;46289;51.992;4.498;2023-04-01T00:59:39;99356.84;;;8.29;98.85
60437;BME280;46289;51.992;4.498;2023-04-01T01:01:45;99361.19;;;8.30;99.33
60437;BME280;46289;51.992;4.498;2023-04-01T01:03:50;99362.34;;;8.24;99.51
60437;BME280;46289;51.992;4.498;2023-04-01T01:06:19;99364.03;;;8.25;99.15
60437;BME280;46289;51.992;4.498;2023-04-01T01:08:45;99367.59;;;8.24;99.20
60437;BME280;46289;51.992;4.498;2023-04-01T01:10:56;99359.63;;;8.26;99.40
60437;BME280;46289;51.992;4.498;2023-04-01T01:13:13;99362.34;;;8.24;99.46
60437;BME280;46289;51.992;4.498;2023-04-01T01:15:30;99368.34;;;8.26;99.36
60437;BME280;46289;51.992;4.498;2023-04-01T01:17:47;99362.34;;;8.24;98.86
60437;BME280;46289;51.992;4.498;2023-04-01T01:22:45;99377.28;;;8.22;99.22
60437;BME280;46289;51.992;4.498;2023-04-01T01:25:14;99374.69;;;8.22;99.34
60437;BME280;46289;51.992;4.498;2023-04-01T01:27:37;99376.28;;;8.25;99.27
60437;BME280;46289;51.992;4.498;2023-04-01T01:35:28;99376.44;;;8.22;99.38
60437;BME280;46289;51.992;4.498;2023-04-01T01:37:41;99382.59;;;8.21;99.50
60437;BME280;46289;51.992;4.498;2023-04-01T01:40:13;99378.38;;;8.18;99.44
60437;BME280;46289;51.992;4.498;2023-04-01T01:42:55;99380.91;;;8.20;99.31
60437;BME280;46289;51.992;4.498;2023-04-01T01:45:25;99392.41;;;8.17;99.35
60437;BME280;46289;51.992;4.498;2023-04-01T01:47:34;99392.56;;;8.14;99.65
60437;BME280;46289;51.992;4.498;2023-04-01T01:49:42;99393.41;;;8.14;99.59
60437;BME280;46289;51.992;4.498;2023-04-01T01:52:05;99396.84;;;8.15;99.46
60437;BME280;46289;51.992;4.498;2023-04-01T01:54:21;99398.53;;;8.16;99.54
60437;BME280;46289;51.992;4.498;2023-04-01T01:56:44;99400.31;;;8.16;99.58
60437;BME280;46289;51.992;4.498;2023-04-01T01:59:03;99402.94;;;8.16;99.64
60437;BME280;46289;51.992;4.498;2023-04-01T02:04:50;99401.75;;;8.21;99.59
60437;BME280;46289;51.992;4.498;2023-04-01T02:07:22;99411.38;;;8.21;99.70
60437;BME280;46289;51.992;4.498;2023-04-01T02:09:53;99423.47;;;8.23;99.46
60437;BME280;46289;51.992;4.498;2023-04-01T02:15:47;99421.25;;;8.16;99.59
60437;BME280;46289;51.992;4.498;2023-04-01T02:19:10;99426.47;;;8.16;99.66
60437;BME280;46289;51.992;4.498;2023-04-01T02:25:20;99437.66;;;8.19;99.81
60437;BME280;46289;51.992;4.498;2023-04-01T02:31:44;99445.50;;;8.19;99.50
60437;BME280;46289;51.992;4.498;2023-04-01T02:34:55;99443.63;;;8.21;99.36
60437;BME280;46289;51.992;4.498;2023-04-01T02:37:18;99444.72;;;8.17;99.70
60437;BME280;46289;51.992;4.498;2023-04-01T02:40:11;99452.34;;;8.22;99.59
60437;BME280;46289;51.992;4.498;2023-04-01T02:43:00;99450.47;;;8.24;99.73
60437;BME280;46289;51.992;4.498;2023-04-01T02:45:35;99441.94;;;8.20;99.84
60437;BME280;46289;51.992;4.498;2023-04-01T02:48:24;99448.78;;;8.23;99.92
60437;BME280;46289;51.992;4.498;2023-04-01T02:51:11;99453.94;;;8.24;99.90
60437;BME280;46289;51.992;4.498;2023-04-01T02:54:05;99460.94;;;8.24;99.98
60437;BME280;46289;51.992;4.498;2023-04-01T02:56:53;99461.63;;;8.27;99.77
60437;BME280;46289;51.992;4.498;2023-04-01T02:59:58;99469.38;;;8.29;99.93
60437;BME280;46289;51.992;4.498;2023-04-01T03:05:46;99473.72;;;8.30;99.88
60437;BME280;46289;51.992;4.498;2023-04-01T03:08:23;99470.16;;;8.31;99.79
60437;BME280;46289;51.992;4.498;2023-04-01T03:14:21;99492.72;;;8.33;100.00
60437;BME280;46289;51.992;4.498;2023-04-01T03:17:03;99501.34;;;8.35;100.00
60437;BME280;46289;51.992;4.498;2023-04-01T03:19:15;99506.41;;;8.39;100.00
60437;BME280;46289;51.992;4.498;2023-04-01T03:21:32;99508.19;;;8.38;100.00
60437;BME280;46289;51.992;4.498;2023-04-01T03:24:34;99517.69;;;8.41;100.00
60437;BME280;46289;51.992;4.498;2023-04-01T03:27:22;99513.34;;;8.40;100.00
60437;BME280;46289;51.992;4.498;2023-04-01T03:32:28;99523.69;;;8.43;100.00
60437;BME280;46289;51.992;4.498;2023-04-01T03:34:41;99533.22;;;8.44;100.00
60437;BME280;46289;51.992;4.498;2023-04-01T03:37:02;99534.06;;;8.44;100.00
60437;BME280;46289;51.992;4.498;2023-04-01T03:39:56;99536.59;;;8.46;100.00
60437;BME280;46289;51.992;4.498;2023-04-01T03:43:01;99538.38;;;8.45;100.00
60437;BME280;46289;51.992;4.498;2023-04-01T03:46:12;99547.69;;;8.51;100.00
60437;BME280;46289;51.992;4.498;2023-04-01T03:48:40;99551.38;;;8.47;100.00
60437;BME280;46289;51.992;4.498;2023-04-01T03:50:59;99554.94;;;8.46;100.00
60437;BME280;46289;51.992;4.498;2023-04-01T03:53:19;99556.72;;;8.45;100.00
60437;BME280;46289;51.992;4.498;2023-04-01T03:56:10;99562.00;;;8.44;100.00
60437;BME280;46289;51.992;4.498;2023-04-01T03:59:01;99568.03;;;8.46;100.00
60437;BME280;46289;51.992;4.498;2023-04-01T04:01:32;99568.19;;;8.43;100.00
60437;BME280;46289;51.992;4.498;2023-04-01T04:03:47;99574.16;;;8.45;100.00
60437;BME280;46289;51.992;4.498;2023-04-01T04:06:15;99578.66;;;8.43;100.00
60437;BME280;46289;51.992;4.498;2023-04-01T04:08:26;99578.72;;;8.41;100.00
60437;BME280;46289;51.992;4.498;2023-04-01T04:10:33;99584.03;;;8.40;100.00
60437;BME280;46289;51.992;4.498;2023-04-01T04:13:00;99596.22;;;8.41;100.00
60437;BME280;46289;51.992;4.498;2023-04-01T04:15:14;99596.34;;;8.38;100.00
60437;BME280;46289;51.992;4.498;2023-04-01T04:17:31;99607.59;;;8.40;100.00
60437;BME280;46289;51.992;4.498;2023-04-01T04:20:00;99605.88;;;8.39;100.00
60437;BME280;46289;51.992;4.498;2023-04-01T04:28:35;99614.53;;;8.41;100.00
60437;BME280;46289;51.992;4.498;2023-04-01T04:30:50;99624.16;;;8.40;100.00
60437;BME280;46289;51.992;4.498;2023-04-01T04:33:42;99630.13;;;8.42;100.00
60437;BME280;46289;51.992;4.498;2023-04-01T04:41:58;99638.09;;;8.41;99.93
60437;BME280;46289;51.992;4.498;2023-04-01T04:44:22;99638.94;;;8.41;99.69
60437;BME280;46289;51.992;4.498;2023-04-01T04:46:34;99647.63;;;8.42;99.78
60437;BME280;46289;51.992;4.498;2023-04-01T04:48:59;99645.94;;;8.41;99.80
60437;BME280;46289;51.992;4.498;2023-04-01T04:51:13;99655.56;;;8.40;100.00
60437;BME280;46289;51.992;4.498;2023-04-01T04:53:19;99654.69;;;8.40;99.86
60437;BME280;46289;51.992;4.498;2023-04-01T04:55:36;99663.47;;;8.39;99.63
60437;BME280;46289;51.992;4.498;2023-04-01T04:57:46;99661.00;;;8.35;99.64
60437;BME280;46289;51.992;4.498;2023-04-01T05:00:03;99668.69;;;8.39;99.73
60437;BME280;46289;51.992;4.498;2023-04-01T05:02:17;99678.38;;;8.36;99.80
60437;BME280;46289;51.992;4.498;2023-04-01T05:04:25;99677.63;;;8.34;99.76
60437;BME280;46289;51.992;4.498;2023-04-01T05:06:31;99676.72;;;8.35;99.83
60437;BME280;46289;51.992;4.498;2023-04-01T05:08:37;99680.22;;;8.34;99.88
60437;BME280;46289;51.992;4.498;2023-04-01T05:10:47;99685.56;;;8.33;99.68
60437;BME280;46289;51.992;4.498;2023-04-01T05:12:54;99696.94;;;8.32;99.70
60437;BME280;46289;51.992;4.498;2023-04-01T05:15:02;99702.41;;;8.27;99.93
60437;BME280;46289;51.992;4.498;2023-04-01T05:17:19;99704.94;;;8.29;100.00
60437;BME280;46289;51.992;4.498;2023-04-01T05:19:29;99709.50;;;8.25;100.00
60437;BME280;46289;51.992;4.498;2023-04-01T05:21:35;99709.66;;;8.22;100.00
60437;BME280;46289;51.992;4.498;2023-04-01T05:23:40;99713.03;;;8.24;100.00
60437;BME280;46289;51.992;4.498;2023-04-01T05:25:49;99713.03;;;8.24;100.00
60437;BME280;46289;51.992;4.498;2023-04-01T05:27:59;99715.72;;;8.23;100.00
60437;BME280;46289;51.992;4.498;2023-04-01T05:30:07;99721.88;;;8.22;100.00
60437;BME280;46289;51.992;4.498;2023-04-01T05:32:13;99719.34;;;8.20;100.00
60437;BME280;46289;51.992;4.498;2023-04-01T05:34:24;99721.94;;;8.20;100.00
60437;BME280;46289;51.992;4.498;2023-04-01T05:36:32;99727.19;;;8.20;100.00
60437;BME280;46289;51.992;4.498;2023-04-01T05:38:41;99728.88;;;8.21;100.00
60437;BME280;46289;51.992;4.498;2023-04-01T05:41:00;99732.41;;;8.20;100.00
60437;BME280;46289;51.992;4.498;2023-04-01T05:43:15;99735.81;;;8.22;99.93
60437;BME280;46289;51.992;4.498;2023-04-01T05:45:28;99740.22;;;8.22;99.89
60437;BME280;46289;51.992;4.498;2023-04-01T05:47:45;99743.66;;;8.22;99.80
60437;BME280;46289;51.992;4.498;2023-04-01T05:49:50;99755.91;;;8.22;100.00
60437;BME280;46289;51.992;4.498;2023-04-01T05:52:05;99755.91;;;8.22;99.92
60437;BME280;46289;51.992;4.498;2023-04-01T05:54:17;99756.75;;;8.22;99.79
60437;BME280;46289;51.992;4.498;2023-04-01T05:56:26;99761.22;;;8.20;100.00
60437;BME280;46289;51.992;4.498;2023-04-01T05:58:36;99761.22;;;8.20;100.00
60437;BME280;46289;51.992;4.498;2023-04-01T06:00:45;99768.28;;;8.18;99.97
60437;BME280;46289;51.992;4.498;2023-04-01T06:03:11;99771.72;;;8.19;99.91
60437;BME280;46289;51.992;4.498;2023-04-01T06:05:27;99780.38;;;8.21;100.00
60437;BME280;46289;51.992;4.498;2023-04-01T06:07:37;99788.31;;;8.19;99.85
60437;BME280;46289;51.992;4.498;2023-04-01T06:09:43;99791.69;;;8.21;100.00
60437;BME280;46289;51.992;4.498;2023-04-01T06:12:11;99801.59;;;8.14;100.00
60437;BME280;46289;51.992;4.498;2023-04-01T06:14:34;99799.97;;;8.12;99.87
60437;BME280;46289;51.992;4.498;2023-04-01T06:17:12;99810.44;;;8.12;100.00
60437;BME280;46289;51.992;4.498;2023-04-01T06:19:53;99812.38;;;8.08;100.00
60437;BME280;46289;51.992;4.498;2023-04-01T06:22:22;99814.97;;;8.08;100.00
60437;BME280;46289;51.992;4.498;2023-04-01T06:25:05;99813.22;;;8.09;100.00
60437;BME280;46289;51.992;4.498;2023-04-01T06:27:47;99828.06;;;8.08;100.00
60437;BME280;46289;51.992;4.498;2023-04-01T06:30:10;99835.28;;;8.03;100.00
60437;BME280;46289;51.992;4.498;2023-04-01T06:32:49;99831.88;;;8.01;100.00
60437;BME280;46289;51.992;4.498;2023-04-01T06:35:17;99840.56;;;8.02;100.00
60437;BME280;46289;51.992;4.498;2023-04-01T06:37:52;99842.00;;;8.09;100.00
60437;BME280;46289;51.992;4.498;2023-04-01T06:40:37;99845.59;;;8.06;100.00
60437;BME280;46289;51.992;4.498;2023-04-01T06:46:02;99849.25;;;8.02;100.00
60437;BME280;46289;51.992;4.498;2023-04-01T06:49:17;99842.25;;;8.03;100.00
60437;BME280;46289;51.992;4.498;2023-04-01T06:51:42;99854.44;;;8.04;100.00
60437;BME280;46289;51.992;4.498;2023-04-01T06:54:28;99851.47;;;8.11;100.00
60437;BME280;46289;51.992;4.498;2023-04-01T06:56:59;99856.63;;;8.13;99.72
60437;BME280;46289;51.992;4.498;2023-04-01T07:02:38;99860.66;;;8.20;99.76
60437;BME280;46289;51.992;4.498;2023-04-01T07:05:24;99869.63;;;8.14;99.71
60437;BME280;46289;51.992;4.498;2023-04-01T07:07:54;99869.56;;;8.16;99.63
60437;BME280;46289;51.992;4.498;2023-04-01T07:10:40;99875.66;;;8.17;99.62
60437;BME280;46289;51.992;4.498;2023-04-01T07:13:24;99880.94;;;8.15;99.80
60437;BME280;46289;51.992;4.498;2023-04-01T07:15:57;99873.94;;;8.16;99.57
60437;BME280;46289;51.992;4.498;2023-04-01T07:18:17;99884.22;;;8.20;99.59
60437;BME280;46289;51.992;4.498;2023-04-01T07:20:41;99892.75;;;8.24;99.75
60437;BME280;46289;51.992;4.498;2023-04-01T07:22:59;99893.41;;;8.29;99.21
60437;BME280;46289;51.992;4.498;2023-04-01T07:25:30;99891.50;;;8.32;99.27
60437;BME280;46289;51.992;4.498;2023-04-01T07:27:35;99894.66;;;8.41;99.12
60437;BME280;46289;51.992;4.498;2023-04-01T07:29:41;99895.66;;;8.36;99.04
60437;BME280;46289;51.992;4.498;2023-04-01T07:31:58;99905.22;;;8.38;99.09
60437;BME280;46289;51.992;4.498;2023-04-01T07:34:12;99907.84;;;8.38;98.56
60437;BME280;46289;51.992;4.498;2023-04-01T07:36:21;99910.19;;;8.44;98.60
60437;BME280;46289;51.992;4.498;2023-04-01T07:38:40;99916.22;;;8.46;98.68
60437;BME280;46289;51.992;4.498;2023-04-01T07:40:55;99913.50;;;8.47;98.80
60437;BME280;46289;51.992;4.498;2023-04-01T07:43:15;99913.75;;;8.43;98.40
60437;BME280;46289;51.992;4.498;2023-04-01T07:45:29;99921.66;;;8.41;98.55
60437;BME280;46289;51.992;4.498;2023-04-01T07:47:52;99923.34;;;8.42;98.91
60437;BME280;46289;51.992;4.498;2023-04-01T07:50:11;99928.38;;;8.47;98.83
60437;BME280;46289;51.992;4.498;2023-04-01T07:52:21;99928.78;;;8.38;98.90
60437;BME280;46289;51.992;4.498;2023-04-01T07:54:36;99935.72;;;8.39;99.01
60437;BME280;46289;51.992;4.498;2023-04-01T07:56:47;99931.09;;;8.45;98.74
60437;BME280;46289;51.992;4.498;2023-04-01T07:59:02;99938.22;;;8.42;98.39
60437;BME280;46289;51.992;4.498;2023-04-01T08:01:17;99938.31;;;8.40;98.97
60437;BME280;46289;51.992;4.498;2023-04-01T08:03:37;99949.72;;;8.38;99.03
60437;BME280;46289;51.992;4.498;2023-04-01T08:05:54;99946.06;;;8.42;98.93
60437;BME280;46289;51.992;4.498;2023-04-01T08:08:06;99956.28;;;8.48;98.70
60437;BME280;46289;51.992;4.498;2023-04-01T08:10:19;99961.78;;;8.42;98.99
60437;BME280;46289;51.992;4.498;2023-04-01T08:12:35;99960.09;;;8.41;98.65
60437;BME280;46289;51.992;4.498;2023-04-01T08:14:52;99964.13;;;8.48;99.09
60437;BME280;46289;51.992;4.498;2023-04-01T08:17:02;99966.03;;;8.44;99.00
60437;BME280;46289;51.992;4.498;2023-04-01T08:19:18;99971.34;;;8.43;99.10
60437;BME280;46289;51.992;4.498;2023-04-01T08:21:32;99973.03;;;8.44;98.93
60437;BME280;46289;51.992;4.498;2023-04-01T08:23:42;99982.16;;;8.54;99.35
60437;BME280;46289;51.992;4.498;2023-04-01T08:25:52;99977.00;;;8.52;98.76
60437;BME280;46289;51.992;4.498;2023-04-01T08:28:09;99987.25;;;8.57;98.92
60437;BME280;46289;51.992;4.498;2023-04-01T08:30:20;99984.28;;;8.46;98.71
60437;BME280;46289;51.992;4.498;2023-04-01T08:32:28;99986.78;;;8.49;99.15
60437;BME280;46289;51.992;4.498;2023-04-01T08:34:38;99985.69;;;8.53;99.30
60437;BME280;46289;51.992;4.498;2023-04-01T08:36:50;99992.00;;;8.49;98.65
60437;BME280;46289;51.992;4.498;2023-04-01T08:39:02;99994.63;;;8.49;98.74
60437;BME280;46289;51.992;4.498;2023-04-01T08:41:19;99990.94;;;8.53;98.71
60437;BME280;46289;51.992;4.498;2023-04-01T08:43:46;100000.41;;;8.55;98.56
60437;BME280;46289;51.992;4.498;2023-04-01T08:46:19;100002.97;;;8.57;98.63
60437;BME280;46289;51.992;4.498;2023-04-01T08:48:53;100001.41;;;8.53;98.76
60437;BME280;46289;51.992;4.498;2023-04-01T08:51:20;100012.19;;;8.66;98.79
60437;BME280;46289;51.992;4.498;2023-04-01T08:53:45;100015.72;;;8.65;98.95
60437;BME280;46289;51.992;4.498;2023-04-01T08:56:03;100019.28;;;8.64;98.48
60437;BME280;46289;51.992;4.498;2023-04-01T08:58:21;100017.00;;;8.56;98.71
60437;BME280;46289;51.992;4.498;2023-04-01T09:00:32;100024.72;;;8.59;98.54
60437;BME280;46289;51.992;4.498;2023-04-01T09:02:51;100022.09;;;8.59;98.57
60437;BME280;46289;51.992;4.498;2023-04-01T09:05:14;100030.59;;;8.64;98.70
60437;BME280;46289;51.992;4.498;2023-04-01T09:07:35;100033.28;;;8.63;98.80
60437;BME280;46289;51.992;4.498;2023-04-01T09:10:09;100036.88;;;8.60;98.67
60437;BME280;46289;51.992;4.498;2023-04-01T09:12:28;100042.84;;;8.64;98.56
60437;BME280;46289;51.992;4.498;2023-04-01T09:14:52;100037.53;;;8.65;98.41
60437;BME280;46289;51.992;4.498;2023-04-01T09:17:07;100048.78;;;8.67;98.49
60437;BME280;46289;51.992;4.498;2023-04-01T09:19:24;100051.81;;;8.58;98.50
60437;BME280;46289;51.992;4.498;2023-04-01T09:21:49;100053.44;;;8.61;98.48
60437;BME280;46289;51.992;4.498;2023-04-01T09:24:31;100050.81;;;8.61;98.43
60437;BME280;46289;51.992;4.498;2023-04-01T09:26:59;100054.81;;;8.69;98.51
60437;BME280;46289;51.992;4.498;2023-04-01T09:29:19;100057.28;;;8.72;98.29
60437;BME280;46289;51.992;4.498;2023-04-01T09:31:52;100055.81;;;8.67;98.30
60437;BME280;46289;51.992;4.498;2023-04-01T09:36:43;100059.66;;;8.58;98.61
60437;BME280;46289;51.992;4.498;2023-04-01T09:38:56;100061.09;;;8.65;98.60
60437;BME280;46289;51.992;4.498;2023-04-01T09:41:12;100062.03;;;8.64;98.51
60437;BME280;46289;51.992;4.498;2023-04-01T09:43:30;100068.16;;;8.63;98.49
60437;BME280;46289;51.992;4.498;2023-04-01T09:45:46;100063.66;;;8.67;98.14
60437;BME280;46289;51.992;4.498;2023-04-01T09:48:14;100070.38;;;8.72;98.54
60437;BME280;46289;51.992;4.498;2023-04-01T09:50:30;100069.84;;;8.85;98.33
60437;BME280;46289;51.992;4.498;2023-04-01T09:52:44;100073.84;;;8.92;98.27
60437;BME280;46289;51.992;4.498;2023-04-01T09:54:59;100077.25;;;8.94;98.43
60437;BME280;46289;51.992;4.498;2023-04-01T09:57:57;100075.44;;;8.96;98.14
60437;BME280;46289;51.992;4.498;2023-04-01T10:00:39;100085.13;;;8.94;98.02
60437;BME280;46289;51.992;4.498;2023-04-01T10:05:55;100086.69;;;8.98;97.30
60437;BME280;46289;51.992;4.498;2023-04-01T10:08:49;100093.97;;;9.10;97.75
60437;BME280;46289;51.992;4.498;2023-04-01T10:11:18;100092.97;;;9.13;97.56
60437;BME280;46289;51.992;4.498;2023-04-01T10:13:49;100094.75;;;9.12;97.90
60437;BME280;46289;51.992;4.498;2023-04-01T10:16:36;100102.13;;;9.04;97.63
60437;BME280;46289;51.992;4.498;2023-04-01T10:19:12;100109.16;;;9.04;97.40
60437;BME280;46289;51.992;4.498;2023-04-01T10:21:40;100110.34;;;8.96;97.65
60437;BME280;46289;51.992;4.498;2023-04-01T10:24:17;100112.59;;;9.04;97.49
60437;BME280;46289;51.992;4.498;2023-04-01T10:26:50;100111.47;;;9.10;97.75
60437;BME280;46289;51.992;4.498;2023-04-01T10:32:09;100121.50;;;9.00;97.47
60437;BME280;46289;51.992;4.498;2023-04-01T10:34:46;100118.78;;;9.03;97.56
60437;BME280;46289;51.992;4.498;2023-04-01T10:36:56;100117.00;;;9.04;97.53
60437;BME280;46289;51.992;4.498;2023-04-01T10:39:17;100117.84;;;9.04;97.75
60437;BME280;46289;51.992;4.498;2023-04-01T10:44:40;100118.91;;;9.00;97.41
60437;BME280;46289;51.992;4.498;2023-04-01T10:49:43;100133.44;;;9.07;97.44
60437;BME280;46289;51.992;4.498;2023-04-01T10:54:49;100129.88;;;9.08;97.81
60437;BME280;46289;51.992;4.498;2023-04-01T10:57:16;100137.81;;;9.07;97.66
60437;BME280;46289;51.992;4.498;2023-04-01T11:05:29;100144.47;;;8.95;97.97
60437;BME280;46289;51.992;4.498;2023-04-01T11:10:52;100153.09;;;8.97;97.69
60437;BME280;46289;51.992;4.498;2023-04-01T11:13:32;100153.44;;;8.89;98.24
60437;BME280;46289;51.992;4.498;2023-04-01T11:27:29;100156.81;;;8.93;98.44
60437;BME280;46289;51.992;4.498;2023-04-01T11:32:46;100166.22;;;8.97;98.30
60437;BME280;46289;51.992;4.498;2023-04-01T11:41:06;100181.75;;;9.20;98.51
60437;BME280;46289;51.992;4.498;2023-04-01T11:43:28;100177.78;;;9.31;98.06
60437;BME280;46289;51.992;4.498;2023-04-01T11:45:51;100179.38;;;9.35;97.63
60437;BME280;46289;51.992;4.498;2023-04-01T11:48:28;100181.22;;;9.33;97.96
60437;BME280;46289;51.992;4.498;2023-04-01T11:50:52;100184.81;;;9.30;97.41
60437;BME280;46289;51.992;4.498;2023-04-01T11:53:26;100189.41;;;9.25;97.26
60437;BME280;46289;51.992;4.498;2023-04-01T11:55:47;100193.09;;;9.40;97.57
60437;BME280;46289;51.992;4.498;2023-04-01T11:58:13;100195.22;;;9.32;97.31
60437;BME280;46289;51.992;4.498;2023-04-01T12:00:41;100205.84;;;9.29;97.49
60437;BME280;46289;51.992;4.498;2023-04-01T12:03:08;100205.84;;;9.29;97.17
60437;BME280;46289;51.992;4.498;2023-04-01T12:05:39;100213.84;;;9.26;97.38
60437;BME280;46289;51.992;4.498;2023-04-01T12:08:09;100214.50;;;9.31;97.33
60437;BME280;46289;51.992;4.498;2023-04-01T12:10:24;100220.88;;;9.25;96.91
60437;BME280;46289;51.992;4.498;2023-04-01T12:12:38;100219.88;;;9.28;96.88
60437;BME280;46289;51.992;4.498;2023-04-01T12:15:17;100222.44;;;9.29;96.50
60437;BME280;46289;51.992;4.498;2023-04-01T12:17:34;100225.97;;;9.28;96.75
60437;BME280;46289;51.992;4.498;2023-04-01T12:19:55;100231.16;;;9.30;97.11
60437;BME280;46289;51.992;4.498;2023-04-01T12:22:16;100228.53;;;9.30;97.44
60437;BME280;46289;51.992;4.498;2023-04-01T12:24:41;100230.94;;;9.34;97.36
60437;BME280;46289;51.992;4.498;2023-04-01T12:27:15;100232.50;;;9.38;97.78
60437;BME280;46289;51.992;4.498;2023-04-01T12:29:57;100233.66;;;9.33;97.22
60437;BME280;46289;51.992;4.498;2023-04-01T12:32:17;100238.31;;;9.45;97.48
60437;BME280;46289;51.992;4.498;2023-04-01T12:34:42;100242.66;;;9.46;96.98
60437;BME280;46289;51.992;4.498;2023-04-01T12:36:59;100245.81;;;9.34;96.46
60437;BME280;46289;51.992;4.498;2023-04-01T12:39:37;100246.41;;;9.40;97.39
60437;BME280;46289;51.992;4.498;2023-04-01T12:41:54;100243.84;;;9.39;96.63
60437;BME280;46289;51.992;4.498;2023-04-01T12:44:20;100248.41;;;9.54;97.02
60437;BME280;46289;51.992;4.498;2023-04-01T12:46:33;100249.25;;;9.55;96.78
60437;BME280;46289;51.992;4.498;2023-04-01T12:49:12;100250.88;;;9.57;96.44
60437;BME280;46289;51.992;4.498;2023-04-01T12:51:39;100249.03;;;9.59;96.43
60437;BME280;46289;51.992;4.498;2023-04-01T12:56:34;100260.59;;;9.55;96.10
60437;BME280;46289;51.992;4.498;2023-04-01T12:59:07;100270.22;;;9.55;96.75
60437;BME280;46289;51.992;4.498;2023-04-01T13:01:41;100275.81;;;9.47;96.62
60437;BME280;46289;51.992;4.498;2023-04-01T13:07:16;100279.94;;;9.53;96.82
60437;BME280;46289;51.992;4.498;2023-04-01T13:09:37;100279.81;;;9.56;96.37
60437;BME280;46289;51.992;4.498;2023-04-01T13:12:06;100287.16;;;9.48;96.88
60437;BME280;46289;51.992;4.498;2023-04-01T13:14:28;100284.00;;;9.60;96.88
60437;BME280;46289;51.992;4.498;2023-04-01T13:16:39;100282.84;;;9.65;96.54
60437;BME280;46289;51.992;4.498;2023-04-01T13:18:57;100285.78;;;9.59;96.08
60437;BME280;46289;51.992;4.498;2023-04-01T13:21:15;100279.97;;;9.72;96.49
60437;BME280;46289;51.992;4.498;2023-04-01T13:23:36;100297.50;;;9.90;96.07
60437;BME280;46289;51.992;4.498;2023-04-01T13:25:47;100289.97;;;9.82;95.34
60437;BME280;46289;51.992;4.498;2023-04-01T13:28:17;100286.13;;;9.71;95.49
60437;BME280;46289;51.992;4.498;2023-04-01T13:30:26;100303.00;;;9.84;95.79
60437;BME280;46289;51.992;4.498;2023-04-01T13:32:37;100298.44;;;9.68;95.49
60437;BME280;46289;51.992;4.498;2023-04-01T13:34:56;100307.19;;;9.69;95.90
60437;BME280;46289;51.992;4.498;2023-04-01T13:37:31;100309.59;;;9.74;96.22
60437;BME280;46289;51.992;4.498;2023-04-01T13:40:12;100313.28;;;9.70;95.16
60437;BME280;46289;51.992;4.498;2023-04-01T13:42:24;100319.38;;;9.70;95.69
60437;BME280;46289;51.992;4.498;2023-04-01T13:44:37;100320.38;;;9.67;95.24
60437;BME280;46289;51.992;4.498;2023-04-01T13:46:59;100321.41;;;9.63;95.31
60437;BME280;46289;51.992;4.498;2023-04-01T13:54:58;100333.38;;;9.50;95.25
60437;BME280;46289;51.992;4.498;2023-04-01T13:57:20;100334.13;;;9.54;95.57
60437;BME280;46289;51.992;4.498;2023-04-01T14:00:05;100336.91;;;9.70;95.64
60437;BME280;46289;51.992;4.498;2023-04-01T14:02:33;100344.47;;;9.57;95.32
60437;BME280;46289;51.992;4.498;2023-04-01T14:04:49;100337.94;;;9.65;94.86
60437;BME280;46289;51.992;4.498;2023-04-01T14:07:08;100351.97;;;9.45;94.95
60437;BME280;46289;51.992;4.498;2023-04-01T14:09:29;100342.84;;;9.54;95.13
60437;BME280;46289;51.992;4.498;2023-04-01T14:11:46;100339.59;;;9.68;94.95
60437;BME280;46289;51.992;4.498;2023-04-01T14:14:06;100349.69;;;9.77;94.70
60437;BME280;46289;51.992;4.498;2023-04-01T14:16:53;100352.22;;;9.79;94.13
60437;BME280;46289;51.992;4.498;2023-04-01T14:19:12;100350.66;;;9.75;94.70
60437;BME280;46289;51.992;4.498;2023-04-01T14:21:37;100352.31;;;9.77;94.85
60437;BME280;46289;51.992;4.498;2023-04-01T14:24:00;100357.91;;;9.70;94.06
60437;BME280;46289;51.992;4.498;2023-04-01T14:26:26;100365.34;;;9.79;94.57